Terminal Aerodrome Forecast
Issued by NWS Lake Charles, LA

Home | Current Version | Previous Version | Text Only | Print | Product List | Glossary On
Versions: 1 2 3 4 5 6 7 8 9 10 11 12 13 14 15
000
FTUS44 KLCH 281700
TAFLCH
TAF
KLCH 281723Z 2818/2918 28008KT P6SM SCT040
     FM290000 26006KT P6SM SCT060
     FM290700 33003KT P6SM SCT060 SCT140
     FM291600 01008KT P6SM VCTS SCT035CB BKN140=

USA.gov is the U.S. government's official web portal to all federal, state and local government web resources and services.